Terminal Aerodrome Forecast
Issued by NWS Northern Indiana

Home | Current Version | Previous Version | Text Only | Print | Product List | Glossary Off
Versions: 1 2 3 4 5 6 7 8 9 10 11 12

295
FTUS43 KIWX 010537
TAFFWA
TAF
KFWA 010537Z 0106/0206 25013G21KT P6SM SCT020 OVC040
     FM011100 24013G21KT P6SM OVC025
     FM012200 24010KT P6SM OVC035=

USA.gov is the U.S. government's official web portal to all federal, state and local government web resources and services.